Addison, Illinois
Current Conditions -  °F | °C
As of 10:51 PM on Friday 24 Oct 2014 (Local Time) from KORD Reporting Station
Overcast Overcast  
Wind Chill: 61°   Ceiling: 3900
Heat Index: 61°   Visibility: 10mi
Dew Point: 47°   Wind: 8mph
Humidity: 60%   Direction: 220°SW
Pressure: 29.93"   Gusts: NA
Location:  41.93°N, 87.99°W
Report Text: KORD 250351Z 22007KT 10SM OVC039 16/08 A2993 RMK AO2 SLP135 T01610083
Loading
Personal Weather Stations






























Interactive Weather Map New forecast layout! Learn more

10-Day Weather Forecast

Advertisements
Track Severe Weather on mobile